Wanyuan, China
Current Conditions -  °F | °C
As of 6:00 PM on Saturday 20 Dec 2014 (Local Time) from ZLXY Reporting Station
Clear Clear  
Wind Chill: 28°   Ceiling: Unl
Heat Index: 34°   Visibility: 6mi
Dew Point:   Wind: 7mph
Humidity: 32%   Direction: 230°SW
Pressure: 30.45"   Gusts: NA
Location:  32.07°N, 108.03°E
Report Text: ZLXY 201000Z 23003MPS CAVOK 01/M14 Q1031 NOSIG
Loading
Personal Weather Stations






























Interactive Weather Map New forecast layout! Learn more

10-Day Weather Forecast

Advertisements
Track Severe Weather on mobile